createdAt,value
2023-03-06T00:00:23.164Z,56.80
2023-03-06T00:02:52.089Z,57.30
2023-03-06T00:05:19.626Z,57.00
2023-03-06T00:07:46.766Z,57.10
2023-03-06T00:10:19.995Z,57.10
2023-03-06T00:12:47.301Z,57.00
2023-03-06T00:15:14.722Z,57.00
2023-03-06T00:17:41.698Z,57.30
2023-03-06T00:20:11.776Z,57.30
2023-03-06T00:22:39.078Z,57.10
2023-03-06T00:25:06.963Z,57.30
2023-03-06T00:27:34.357Z,57.20
2023-03-06T00:30:01.807Z,57.20
2023-03-06T00:32:29.401Z,57.20
2023-03-06T00:34:56.916Z,57.10
2023-03-06T00:37:25.545Z,57.30
2023-03-06T00:39:52.680Z,57.10
2023-03-06T00:42:20.237Z,57.20
2023-03-06T00:44:47.279Z,57.20
2023-03-06T00:47:17.248Z,57.20
2023-03-06T00:49:45.224Z,57.30
2023-03-06T00:52:12.904Z,56.90
2023-03-06T00:54:40.477Z,57.80
2023-03-06T00:57:07.796Z,57.80
2023-03-06T00:59:35.296Z,57.90
2023-03-06T01:02:03.460Z,57.80
2023-03-06T01:04:30.874Z,57.80
2023-03-06T01:06:57.918Z,58.00
2023-03-06T01:09:25.055Z,57.70
2023-03-06T01:11:53.987Z,57.60
2023-03-06T01:14:21.119Z,57.70
2023-03-06T01:16:48.657Z,57.70
2023-03-06T01:19:17.829Z,57.70
2023-03-06T01:21:45.764Z,57.70
2023-03-06T01:24:12.718Z,57.80
2023-03-06T01:26:39.808Z,57.80
2023-03-06T01:29:06.757Z,57.70
2023-03-06T01:31:34.381Z,57.90
2023-03-06T01:34:01.293Z,57.90
2023-03-06T01:36:28.572Z,57.80
2023-03-06T01:38:55.536Z,57.80
2023-03-06T01:41:22.503Z,57.80
2023-03-06T01:43:50.338Z,57.80
2023-03-06T01:46:29.593Z,57.70
2023-03-06T01:49:14.978Z,57.70
2023-03-06T01:52:14.050Z,57.80
2023-03-06T01:54:49.561Z,57.90
2023-03-06T01:57:23.208Z,57.70
2023-03-06T01:59:56.410Z,57.50
2023-03-06T02:02:24.735Z,57.60
2023-03-06T02:04:51.733Z,57.60
2023-03-06T02:07:20.904Z,57.50
2023-03-06T02:09:47.847Z,57.80
2023-03-06T02:12:19.199Z,57.80
2023-03-06T02:14:47.289Z,57.90
2023-03-06T02:17:16.924Z,57.80
2023-03-06T02:19:53.189Z,57.90
2023-03-06T02:22:22.010Z,57.90
2023-03-06T02:25:04.082Z,58.00
2023-03-06T02:27:31.821Z,57.80
2023-03-06T02:29:58.848Z,57.80
2023-03-06T02:32:26.025Z,57.90
2023-03-06T02:34:57.843Z,58.60
2023-03-06T02:37:27.206Z,57.80
2023-03-06T02:40:05.576Z,57.90
2023-03-06T02:42:32.686Z,57.80
2023-03-06T02:45:02.356Z,57.90
2023-03-06T02:47:29.555Z,58.00
2023-03-06T02:49:56.504Z,58.10
2023-03-06T02:52:24.361Z,58.10
2023-03-06T02:54:51.327Z,58.10
2023-03-06T02:57:18.251Z,58.90
2023-03-06T02:59:45.786Z,58.10
2023-03-06T03:02:12.952Z,58.00
2023-03-06T03:04:40.059Z,58.20
2023-03-06T03:07:08.237Z,58.20
2023-03-06T03:09:37.260Z,58.30
2023-03-06T03:12:06.719Z,58.40
2023-03-06T03:14:34.485Z,58.20
2023-03-06T03:17:03.207Z,58.40
2023-03-06T03:19:30.225Z,58.30
2023-03-06T03:21:57.249Z,58.50
2023-03-06T03:24:25.066Z,58.40
2023-03-06T03:26:52.722Z,58.60
2023-03-06T03:29:21.978Z,58.50
2023-03-06T03:31:49.125Z,58.90
2023-03-06T03:34:16.377Z,58.70
2023-03-06T03:36:43.694Z,58.50
2023-03-06T03:39:14.123Z,58.30
2023-03-06T03:41:42.524Z,58.00
2023-03-06T03:44:10.706Z,58.10
2023-03-06T03:46:38.422Z,58.00
2023-03-06T03:49:10.216Z,58.80
2023-03-06T03:51:38.026Z,58.40
2023-03-06T03:54:06.808Z,58.80
2023-03-06T03:56:40.372Z,58.30
2023-03-06T03:59:12.479Z,58.40
2023-03-06T04:01:48.285Z,58.30
2023-03-06T04:04:15.661Z,58.40
2023-03-06T04:06:44.316Z,58.50
2023-03-06T04:09:11.561Z,58.50
2023-03-06T04:11:39.150Z,58.30
2023-03-06T04:14:08.288Z,58.10
2023-03-06T04:16:35.782Z,58.10
2023-03-06T04:19:02.993Z,58.40
2023-03-06T04:21:30.030Z,58.40
2023-03-06T04:23:57.157Z,58.30
2023-03-06T04:26:24.647Z,58.60
2023-03-06T04:28:51.679Z,58.90
2023-03-06T04:31:19.783Z,58.60
2023-03-06T04:33:46.778Z,58.30
2023-03-06T04:36:45.095Z,58.30
2023-03-06T04:39:14.078Z,58.80
2023-03-06T04:41:42.179Z,58.80
2023-03-06T04:44:09.389Z,58.70
2023-03-06T04:46:36.524Z,58.80
2023-03-06T04:49:04.165Z,59.00
2023-03-06T04:51:31.493Z,59.20
2023-03-06T04:53:58.553Z,59.10
2023-03-06T04:56:25.469Z,58.90
2023-03-06T04:58:52.407Z,59.10
2023-03-06T05:01:19.407Z,58.90
2023-03-06T05:03:46.463Z,59.00
2023-03-06T05:06:13.407Z,59.20
2023-03-06T05:08:40.468Z,59.30
2023-03-06T05:11:07.621Z,59.20
2023-03-06T05:13:34.605Z,59.20
2023-03-06T05:16:06.282Z,59.10
2023-03-06T05:18:34.590Z,59.10
2023-03-06T05:21:01.783Z,59.00
2023-03-06T05:23:34.031Z,58.60
2023-03-06T05:26:01.038Z,58.30
2023-03-06T05:28:28.701Z,58.40
2023-03-06T05:30:55.830Z,58.30
2023-03-06T05:33:22.799Z,58.10
2023-03-06T05:35:50.037Z,58.20
2023-03-06T05:38:17.261Z,57.90
2023-03-06T05:40:45.082Z,57.90
2023-03-06T05:43:12.490Z,57.90
2023-03-06T05:45:40.605Z,57.90
2023-03-06T05:48:08.279Z,57.60
2023-03-06T05:50:35.463Z,57.80
2023-03-06T05:53:02.448Z,57.70
2023-03-06T05:55:29.854Z,57.90
2023-03-06T05:57:56.776Z,58.10
2023-03-06T06:00:24.171Z,58.00
2023-03-06T06:02:51.175Z,58.00
2023-03-06T06:05:18.386Z,57.80
2023-03-06T06:07:45.479Z,57.90
2023-03-06T06:10:13.017Z,57.70
2023-03-06T06:12:40.192Z,58.10
2023-03-06T06:15:07.883Z,58.30
2023-03-06T06:17:34.981Z,57.80
2023-03-06T06:20:01.984Z,57.90
2023-03-06T06:22:29.024Z,57.80
2023-03-06T06:24:56.086Z,58.50
2023-03-06T06:27:23.165Z,59.20
2023-03-06T06:29:53.010Z,58.50
2023-03-06T06:32:20.313Z,58.30
2023-03-06T06:34:47.431Z,58.00
2023-03-06T06:37:14.454Z,58.10
2023-03-06T06:39:41.428Z,58.50
2023-03-06T06:42:29.847Z,58.80
2023-03-06T06:44:57.065Z,58.80
2023-03-06T06:47:25.353Z,58.60
2023-03-06T06:49:54.767Z,57.60
2023-03-06T06:52:22.624Z,57.80
2023-03-06T06:54:49.760Z,59.10
2023-03-06T06:57:17.133Z,59.00
2023-03-06T06:59:44.270Z,59.50
2023-03-06T07:02:13.240Z,60.30
2023-03-06T07:04:49.281Z,60.60
2023-03-06T07:07:27.684Z,60.10
2023-03-06T07:09:55.895Z,61.00
2023-03-06T07:12:22.947Z,60.80
2023-03-06T07:14:49.948Z,60.70
2023-03-06T07:17:16.992Z,60.10
2023-03-06T07:19:43.900Z,60.40
2023-03-06T07:22:10.906Z,60.40
2023-03-06T07:24:37.862Z,59.40
2023-03-06T07:27:04.832Z,58.70
2023-03-06T07:29:34.036Z,59.30
2023-03-06T07:32:02.082Z,58.50
2023-03-06T07:34:29.464Z,60.20
2023-03-06T07:36:56.604Z,58.90
2023-03-06T07:39:23.575Z,60.20
2023-03-06T07:41:52.148Z,60.00
2023-03-06T07:44:19.349Z,60.20
2023-03-06T07:46:46.452Z,61.00
2023-03-06T07:49:13.793Z,60.30
2023-03-06T07:51:41.079Z,60.40
2023-03-06T07:54:08.003Z,60.70
2023-03-06T07:56:35.168Z,60.50
2023-03-06T07:59:02.341Z,60.60
2023-03-06T08:01:29.395Z,59.90
2023-03-06T08:03:56.407Z,60.60
2023-03-06T08:06:26.246Z,60.60
2023-03-06T08:08:55.597Z,60.50
2023-03-06T08:11:25.669Z,61.40
2023-03-06T08:13:53.725Z,60.30
2023-03-06T08:16:26.337Z,59.60
2023-03-06T08:18:56.008Z,59.40
2023-03-06T08:21:25.588Z,59.50
2023-03-06T08:23:52.994Z,59.70
2023-03-06T08:26:25.389Z,59.00
2023-03-06T08:28:57.930Z,58.10
2023-03-06T08:31:31.584Z,57.10
2023-03-06T08:34:01.507Z,58.30
2023-03-06T08:36:28.891Z,58.40
2023-03-06T08:38:56.892Z,58.90
2023-03-06T08:41:24.105Z,58.00
2023-03-06T08:43:51.917Z,57.70
2023-03-06T08:46:20.937Z,57.00
2023-03-06T08:48:48.275Z,57.10
2023-03-06T08:51:16.230Z,57.80
2023-03-06T08:53:44.271Z,57.40
2023-03-06T08:56:23.376Z,56.70
2023-03-06T08:58:50.872Z,56.90
2023-03-06T09:01:26.316Z,57.40
2023-03-06T09:03:58.670Z,56.80
2023-03-06T09:06:27.352Z,57.50
2023-03-06T09:08:54.949Z,56.70
2023-03-06T09:11:24.013Z,57.00
2023-03-06T09:13:51.774Z,57.50
2023-03-06T09:16:18.922Z,55.70
2023-03-06T09:18:46.080Z,56.60
2023-03-06T09:21:13.113Z,57.00
2023-03-06T09:23:40.301Z,56.40
2023-03-06T09:26:08.516Z,55.90
2023-03-06T09:28:38.854Z,56.20
2023-03-06T09:31:14.334Z,56.20
2023-03-06T09:33:41.616Z,56.20
2023-03-06T09:36:13.697Z,55.80
2023-03-06T09:38:40.980Z,56.30
2023-03-06T09:41:13.972Z,56.30
2023-03-06T09:43:45.437Z,56.40
2023-03-06T09:46:24.456Z,55.80
2023-03-06T09:49:10.583Z,56.30
2023-03-06T09:52:18.836Z,56.60
2023-03-06T09:55:10.355Z,56.00
2023-03-06T09:58:07.520Z,55.90
2023-03-06T10:00:51.437Z,56.00
2023-03-06T10:03:27.479Z,55.50
2023-03-06T10:06:16.376Z,55.30
2023-03-06T10:08:43.325Z,55.70
2023-03-06T10:11:12.981Z,56.20
2023-03-06T10:13:48.561Z,56.30
2023-03-06T10:16:31.340Z,55.40
2023-03-06T10:19:10.378Z,55.30
2023-03-06T10:21:53.236Z,55.50
2023-03-06T10:24:47.511Z,55.40
2023-03-06T10:27:28.449Z,55.70
2023-03-06T10:30:06.737Z,56.10
2023-03-06T10:32:49.123Z,54.60
2023-03-06T10:35:41.097Z,53.90
2023-03-06T10:38:26.065Z,54.50
2023-03-06T10:41:13.496Z,54.60
2023-03-06T10:43:42.535Z,55.00
2023-03-06T10:46:12.947Z,53.70
2023-03-06T10:48:42.438Z,53.50
2023-03-06T10:51:21.319Z,53.50
2023-03-06T10:54:04.168Z,53.30
2023-03-06T10:56:39.808Z,53.20
2023-03-06T10:59:06.969Z,54.80
2023-03-06T11:01:34.679Z,54.50
2023-03-06T11:04:26.291Z,54.10
2023-03-06T11:07:15.701Z,53.80
2023-03-06T11:09:59.302Z,53.30
2023-03-06T11:12:33.606Z,53.00
2023-03-06T11:15:21.592Z,52.70
2023-03-06T11:18:08.834Z,52.90
2023-03-06T11:20:51.916Z,52.90
2023-03-06T11:23:42.833Z,52.80
2023-03-06T11:26:15.730Z,52.60
2023-03-06T11:28:57.359Z,52.80
2023-03-06T11:31:53.650Z,52.00
2023-03-06T11:34:28.733Z,51.80
2023-03-06T11:37:01.371Z,50.90
2023-03-06T11:39:36.650Z,51.70
2023-03-06T11:42:14.916Z,52.00
2023-03-06T11:45:23.992Z,50.90
2023-03-06T11:47:55.389Z,51.80
2023-03-06T11:50:33.487Z,51.10
2023-03-06T11:53:03.372Z,51.50
2023-03-06T11:55:56.470Z,51.30
2023-03-06T11:58:50.037Z,52.10
2023-03-06T12:01:49.511Z,51.10
2023-03-06T12:04:39.074Z,51.40
2023-03-06T12:07:31.347Z,50.20
2023-03-06T12:10:20.786Z,51.40
2023-03-06T12:13:06.500Z,51.40
2023-03-06T12:16:07.484Z,51.70
2023-03-06T12:18:37.425Z,51.00
2023-03-06T12:21:23.062Z,50.80
2023-03-06T12:23:55.939Z,52.00
2023-03-06T12:26:34.499Z,51.90
2023-03-06T12:29:16.478Z,50.20
2023-03-06T12:31:52.906Z,52.10
2023-03-06T12:34:38.451Z,51.00
2023-03-06T12:37:31.364Z,50.50
2023-03-06T12:40:10.896Z,50.70
2023-03-06T12:42:57.071Z,50.50
2023-03-06T12:45:33.752Z,51.20
2023-03-06T12:48:02.056Z,51.00
2023-03-06T12:50:32.934Z,50.80
2023-03-06T12:53:19.100Z,50.60
2023-03-06T12:55:48.908Z,51.10
2023-03-06T12:58:31.206Z,50.50
2023-03-06T13:01:13.179Z,50.00
2023-03-06T13:03:58.776Z,50.50
2023-03-06T13:07:10.996Z,50.50
2023-03-06T13:10:06.538Z,50.30
2023-03-06T13:12:56.760Z,49.90
2023-03-06T13:15:43.289Z,51.70
2023-03-06T13:18:22.554Z,50.60
2023-03-06T13:20:56.469Z,50.30
2023-03-06T13:23:29.618Z,50.00
2023-03-06T13:26:35.597Z,50.20
2023-03-06T13:29:02.649Z,50.70
2023-03-06T13:31:36.519Z,49.90
2023-03-06T13:34:26.658Z,50.50
2023-03-06T13:37:13.704Z,51.50
2023-03-06T13:40:01.630Z,49.20
2023-03-06T13:42:35.246Z,50.90
2023-03-06T13:45:25.906Z,50.20
2023-03-06T13:50:47.509Z,49.10
2023-03-06T13:53:47.411Z,51.40
2023-03-06T13:56:33.013Z,47.30
2023-03-06T13:59:33.373Z,49.40
2023-03-06T14:02:33.733Z,50.40
2023-03-06T14:05:03.460Z,48.10
2023-03-06T14:07:41.931Z,50.40
2023-03-06T14:10:19.268Z,49.70
2023-03-06T14:12:49.944Z,48.90
2023-03-06T14:15:24.977Z,48.80
2023-03-06T14:18:01.807Z,48.20
2023-03-06T14:20:51.750Z,47.70
2023-03-06T14:23:27.777Z,48.30
2023-03-06T14:26:06.410Z,48.30
2023-03-06T14:28:35.137Z,48.90
2023-03-06T14:31:04.453Z,49.20
2023-03-06T14:33:42.276Z,49.20
2023-03-06T14:36:15.200Z,48.20
2023-03-06T14:38:57.252Z,49.10
2023-03-06T14:41:33.123Z,46.70
2023-03-06T14:44:12.331Z,47.70
2023-03-06T14:46:42.405Z,48.10
2023-03-06T14:49:10.794Z,48.50
2023-03-06T14:51:43.170Z,46.80
2023-03-06T14:54:19.703Z,47.60
2023-03-06T14:56:50.570Z,48.70
2023-03-06T14:59:25.152Z,48.90
2023-03-06T15:01:59.492Z,47.40
2023-03-06T15:04:40.385Z,48.60
2023-03-06T15:07:11.400Z,48.20
2023-03-06T15:09:40.375Z,47.10
2023-03-06T15:12:31.406Z,46.80
2023-03-06T15:15:10.673Z,47.90
2023-03-06T15:17:43.723Z,48.20
2023-03-06T15:20:43.589Z,47.50
2023-03-06T15:23:38.340Z,47.20
2023-03-06T15:26:27.514Z,49.30
2023-03-06T15:29:10.370Z,47.60
2023-03-06T15:31:42.740Z,47.70
2023-03-06T15:34:09.705Z,48.70
2023-03-06T15:36:38.213Z,45.70
2023-03-06T15:39:37.200Z,45.60
2023-03-06T15:42:13.247Z,48.10
2023-03-06T15:44:40.386Z,45.80
2023-03-06T15:47:11.815Z,45.40
2023-03-06T15:49:39.935Z,45.50
2023-03-06T15:52:07.598Z,45.90
2023-03-06T15:54:35.559Z,46.70
2023-03-06T15:57:08.185Z,46.30
2023-03-06T15:59:42.943Z,46.10
2023-03-06T16:02:21.263Z,48.60
2023-03-06T16:04:53.507Z,45.20
2023-03-06T16:07:20.911Z,43.40
2023-03-06T16:09:48.251Z,44.00
2023-03-06T16:12:18.171Z,44.80
2023-03-06T16:14:47.622Z,44.90
2023-03-06T16:17:15.460Z,44.30
2023-03-06T16:19:45.427Z,43.90
2023-03-06T16:22:12.607Z,45.80
2023-03-06T16:24:39.617Z,45.10
2023-03-06T16:27:07.111Z,44.40
2023-03-06T16:29:34.213Z,45.70
2023-03-06T16:32:01.914Z,43.90
2023-03-06T16:34:29.202Z,44.30
2023-03-06T16:36:56.307Z,45.40
2023-03-06T16:39:24.109Z,46.30
2023-03-06T16:41:51.520Z,45.60
2023-03-06T16:44:19.118Z,45.10
2023-03-06T16:46:48.229Z,42.50
2023-03-06T16:49:20.719Z,45.20
2023-03-06T16:51:48.221Z,45.80
2023-03-06T16:54:15.418Z,45.20
2023-03-06T16:56:42.868Z,45.50
2023-03-06T16:59:10.762Z,45.30
2023-03-06T17:01:38.566Z,47.30
2023-03-06T17:04:05.762Z,45.20
2023-03-06T17:06:32.757Z,44.90
2023-03-06T17:09:00.178Z,46.80
2023-03-06T17:11:27.267Z,44.00
2023-03-06T17:13:55.393Z,44.20
2023-03-06T17:16:22.662Z,43.20
2023-03-06T17:18:50.056Z,45.10
2023-03-06T17:21:17.212Z,46.00
2023-03-06T17:23:44.635Z,44.80
2023-03-06T17:26:15.208Z,45.20
2023-03-06T17:28:43.024Z,45.60
2023-03-06T17:31:18.614Z,44.80
2023-03-06T17:33:46.076Z,46.80
2023-03-06T17:36:14.639Z,45.40
2023-03-06T17:38:42.394Z,46.30
2023-03-06T17:41:10.701Z,49.00
2023-03-06T17:43:39.118Z,45.90
2023-03-06T17:46:08.595Z,46.10
2023-03-06T17:48:36.512Z,47.20
2023-03-06T17:51:04.090Z,47.10
2023-03-06T17:53:31.076Z,49.00
2023-03-06T17:55:58.227Z,49.30
2023-03-06T17:58:26.277Z,48.10
2023-03-06T18:00:53.736Z,48.40
2023-03-06T18:03:20.783Z,50.50
2023-03-06T18:05:47.774Z,48.80
2023-03-06T18:08:14.795Z,48.10
2023-03-06T18:10:43.540Z,47.60
2023-03-06T18:13:11.171Z,48.10
2023-03-06T18:15:39.644Z,50.70
2023-03-06T18:18:07.641Z,49.60
2023-03-06T18:20:35.194Z,51.20
2023-03-06T18:23:03.694Z,49.60
2023-03-06T18:25:32.309Z,50.10
2023-03-06T18:27:59.695Z,50.50
2023-03-06T18:30:27.181Z,50.40
2023-03-06T18:32:55.279Z,51.20
2023-03-06T18:35:24.405Z,52.30
2023-03-06T18:37:52.207Z,52.40
2023-03-06T18:40:19.584Z,53.00
2023-03-06T18:42:50.038Z,52.90
2023-03-06T18:45:17.332Z,53.50
2023-03-06T18:47:44.582Z,54.60
2023-03-06T18:50:16.537Z,55.00
2023-03-06T18:52:47.141Z,55.20
2023-03-06T18:55:14.376Z,55.40
2023-03-06T18:57:41.716Z,54.50
2023-03-06T19:00:12.196Z,55.00
2023-03-06T19:02:39.255Z,54.00
2023-03-06T19:05:06.786Z,54.30
2023-03-06T19:07:33.949Z,54.00
2023-03-06T19:10:02.226Z,55.00
2023-03-06T19:12:29.768Z,54.10
2023-03-06T19:14:58.116Z,54.50
2023-03-06T19:17:25.292Z,54.10
2023-03-06T19:19:52.424Z,54.30
2023-03-06T19:22:19.596Z,54.30
2023-03-06T19:24:48.260Z,53.90
2023-03-06T19:27:21.630Z,54.20
2023-03-06T19:29:49.290Z,53.30
2023-03-06T19:32:16.755Z,54.80
2023-03-06T19:34:44.104Z,53.20
2023-03-06T19:37:11.379Z,52.30
2023-03-06T19:39:38.455Z,51.60
2023-03-06T19:42:07.779Z,52.50
2023-03-06T19:44:36.775Z,52.60
2023-03-06T19:47:03.828Z,52.80
2023-03-06T19:49:31.231Z,52.30
2023-03-06T19:51:58.265Z,52.70
2023-03-06T19:54:26.122Z,53.70
2023-03-06T19:56:54.125Z,52.10
2023-03-06T19:59:21.296Z,51.50
2023-03-06T20:01:48.520Z,52.50
2023-03-06T20:04:17.239Z,52.10
2023-03-06T20:06:48.314Z,52.80
2023-03-06T20:09:16.100Z,53.30
2023-03-06T20:11:44.194Z,52.80
2023-03-06T20:14:12.663Z,52.30
2023-03-06T20:16:39.896Z,52.20
2023-03-06T20:19:08.712Z,53.30
2023-03-06T20:21:44.538Z,54.30
2023-03-06T20:24:17.997Z,54.00
2023-03-06T20:26:46.991Z,54.20
2023-03-06T20:29:14.494Z,54.40
2023-03-06T20:31:41.854Z,52.60
2023-03-06T20:34:08.867Z,54.60
2023-03-06T20:36:40.408Z,52.80
2023-03-06T20:39:11.605Z,53.30
2023-03-06T20:41:39.738Z,53.80
2023-03-06T20:44:13.536Z,53.90
2023-03-06T20:46:40.921Z,55.10
2023-03-06T20:49:08.684Z,55.20
2023-03-06T20:51:39.149Z,54.20
2023-03-06T20:54:11.966Z,55.40
2023-03-06T20:56:41.421Z,53.80
2023-03-06T20:59:11.683Z,53.90
2023-03-06T21:01:41.856Z,53.90
2023-03-06T21:04:10.841Z,53.50
2023-03-06T21:06:42.660Z,53.70
2023-03-06T21:09:11.296Z,53.40
2023-03-06T21:11:38.305Z,54.30
2023-03-06T21:14:05.520Z,53.80
2023-03-06T21:16:33.070Z,54.10
2023-03-06T21:19:00.874Z,53.80
2023-03-06T21:21:31.631Z,53.70
2023-03-06T21:23:59.431Z,53.70
2023-03-06T21:26:29.163Z,53.70
2023-03-06T21:28:58.109Z,54.30
2023-03-06T21:31:25.812Z,53.80
2023-03-06T21:33:53.148Z,53.80
2023-03-06T21:36:23.567Z,54.10
2023-03-06T21:38:52.664Z,54.70
2023-03-06T21:41:24.836Z,54.10
2023-03-06T21:44:00.113Z,54.10
2023-03-06T21:46:28.153Z,53.70
2023-03-06T21:48:56.159Z,53.70
2023-03-06T21:51:24.304Z,54.60
2023-03-06T21:53:52.612Z,53.80
2023-03-06T21:56:21.748Z,53.30
2023-03-06T21:58:48.812Z,53.60
2023-03-06T22:01:27.385Z,54.00
2023-03-06T22:03:54.763Z,54.00
2023-03-06T22:06:25.055Z,52.90
2023-03-06T22:08:52.393Z,53.50
2023-03-06T22:11:21.161Z,53.80
2023-03-06T22:13:49.491Z,54.00
2023-03-06T22:16:17.748Z,54.10
2023-03-06T22:18:46.604Z,54.10
2023-03-06T22:21:15.665Z,54.60
2023-03-06T22:23:43.133Z,54.40
2023-03-06T22:26:19.983Z,55.10
2023-03-06T22:28:47.368Z,54.30
2023-03-06T22:31:20.301Z,54.30
2023-03-06T22:33:49.970Z,54.40
2023-03-06T22:36:16.962Z,54.70
2023-03-06T22:38:45.661Z,54.70
2023-03-06T22:41:15.199Z,55.10
2023-03-06T22:43:42.921Z,54.80
2023-03-06T22:46:15.107Z,55.00
2023-03-06T22:48:42.522Z,55.60
2023-03-06T22:51:15.473Z,54.90
2023-03-06T22:53:42.832Z,54.10
2023-03-06T22:56:15.937Z,54.50
2023-03-06T22:58:44.846Z,54.70
2023-03-06T23:01:16.136Z,54.80
2023-03-06T23:03:45.222Z,55.10
2023-03-06T23:06:14.909Z,54.80
2023-03-06T23:08:42.923Z,56.00
2023-03-06T23:11:12.366Z,54.70
2023-03-06T23:13:58.204Z,55.00
2023-03-06T23:16:44.236Z,55.00
2023-03-06T23:19:29.706Z,55.30
2023-03-06T23:22:15.333Z,54.70
2023-03-06T23:25:00.601Z,54.90
2023-03-06T23:27:28.150Z,55.20
2023-03-06T23:29:56.920Z,55.90
2023-03-06T23:32:23.937Z,55.20
2023-03-06T23:34:51.048Z,54.30
2023-03-06T23:37:17.979Z,54.10
2023-03-06T23:39:45.607Z,54.70
2023-03-06T23:42:12.554Z,55.00
2023-03-06T23:44:39.501Z,54.70
2023-03-06T23:47:06.875Z,54.60
2023-03-06T23:49:33.864Z,55.00
2023-03-06T23:52:00.892Z,54.80
2023-03-06T23:54:27.875Z,55.00
2023-03-06T23:56:54.835Z,54.80
2023-03-06T23:59:21.790Z,56.20
